sensor_id;sensor_type;location;lat;lon;timestamp;pressure;altitude;pressure_sealevel;temperature;humidity
12536;BME280;6334;48.696;2.114;2022-09-12T00:01:43;99783.06;;;17.51;95.15
12536;BME280;6334;48.696;2.114;2022-09-12T00:04:13;99788.09;;;17.84;93.92
12536;BME280;6334;48.696;2.114;2022-09-12T00:06:44;99787.18;;;17.94;93.48
12536;BME280;6334;48.696;2.114;2022-09-12T00:09:14;99782.47;;;17.97;93.56
12536;BME280;6334;48.696;2.114;2022-09-12T00:11:45;99781.53;;;17.99;92.86
12536;BME280;6334;48.696;2.114;2022-09-12T00:14:17;99779.37;;;17.98;92.24
12536;BME280;6334;48.696;2.114;2022-09-12T00:16:46;99773.94;;;17.85;93.45
12536;BME280;6334;48.696;2.114;2022-09-12T00:19:17;99771.39;;;17.82;93.19
12536;BME280;6334;48.696;2.114;2022-09-12T00:21:47;99764.33;;;17.72;93.75
12536;BME280;6334;48.696;2.114;2022-09-12T00:24:18;99760.89;;;17.88;93.76
12536;BME280;6334;48.696;2.114;2022-09-12T00:26:48;99756.98;;;17.68;93.85
12536;BME280;6334;48.696;2.114;2022-09-12T00:29:20;99747.17;;;17.70;94.88
12536;BME280;6334;48.696;2.114;2022-09-12T00:31:49;99741.00;;;17.75;94.39
12536;BME280;6334;48.696;2.114;2022-09-12T00:34:20;99749.11;;;17.66;94.31
12536;BME280;6334;48.696;2.114;2022-09-12T00:36:51;99746.16;;;17.75;93.90
12536;BME280;6334;48.696;2.114;2022-09-12T00:39:21;99748.26;;;17.65;94.70
12536;BME280;6334;48.696;2.114;2022-09-12T00:41:52;99735.32;;;17.57;94.69
12536;BME280;6334;48.696;2.114;2022-09-12T00:49:47;99739.93;;;17.73;94.11
12536;BME280;6334;48.696;2.114;2022-09-12T00:54:54;99738.28;;;17.67;93.57
12536;BME280;6334;48.696;2.114;2022-09-12T00:57:21;99740.19;;;17.76;93.56
12536;BME280;6334;48.696;2.114;2022-09-12T00:59:55;99744.43;;;17.71;93.16
12536;BME280;6334;48.696;2.114;2022-09-12T01:02:23;99739.36;;;17.73;93.69
12536;BME280;6334;48.696;2.114;2022-09-12T01:04:54;99740.66;;;17.74;93.18
12536;BME280;6334;48.696;2.114;2022-09-12T01:07:24;99737.84;;;17.71;92.95
12536;BME280;6334;48.696;2.114;2022-09-12T01:09:55;99734.85;;;17.68;94.14
12536;BME280;6334;48.696;2.114;2022-09-12T01:12:25;99735.43;;;17.80;93.08
12536;BME280;6334;48.696;2.114;2022-09-12T01:14:57;99735.70;;;17.81;92.95
12536;BME280;6334;48.696;2.114;2022-09-12T01:17:30;99732.09;;;17.86;92.27
12536;BME280;6334;48.696;2.114;2022-09-12T01:23:18;99722.86;;;17.75;92.96
12536;BME280;6334;48.696;2.114;2022-09-12T01:25:58;99712.39;;;17.68;93.62
12536;BME280;6334;48.696;2.114;2022-09-12T01:28:48;99711.97;;;17.66;93.88
12536;BME280;6334;48.696;2.114;2022-09-12T01:31:12;99703.51;;;17.56;93.95
12536;BME280;6334;48.696;2.114;2022-09-12T01:36:40;99703.95;;;17.54;94.11
12536;BME280;6334;48.696;2.114;2022-09-12T01:42:15;99684.95;;;17.30;95.36
12536;BME280;6334;48.696;2.114;2022-09-12T01:50:14;99692.89;;;17.59;94.27
12536;BME280;6334;48.696;2.114;2022-09-12T01:52:50;99700.36;;;17.61;93.64
12536;BME280;6334;48.696;2.114;2022-09-12T01:55:20;99695.45;;;17.57;93.35
12536;BME280;6334;48.696;2.114;2022-09-12T01:57:56;99685.08;;;17.50;93.93
12536;BME280;6334;48.696;2.114;2022-09-12T02:00:25;99695.12;;;17.46;94.20
12536;BME280;6334;48.696;2.114;2022-09-12T02:03:08;99691.99;;;17.50;94.28
12536;BME280;6334;48.696;2.114;2022-09-12T02:05:36;99689.95;;;17.50;94.56
12536;BME280;6334;48.696;2.114;2022-09-12T02:08:06;99686.55;;;17.58;93.56
12536;BME280;6334;48.696;2.114;2022-09-12T02:10:55;99692.39;;;17.62;92.58
12536;BME280;6334;48.696;2.114;2022-09-12T02:13:43;99686.73;;;17.62;92.73
12536;BME280;6334;48.696;2.114;2022-09-12T02:16:14;99681.00;;;17.56;92.26
12536;BME280;6334;48.696;2.114;2022-09-12T02:18:43;99679.91;;;17.43;93.83
12536;BME280;6334;48.696;2.114;2022-09-12T02:21:12;99676.02;;;17.44;93.91
12536;BME280;6334;48.696;2.114;2022-09-12T02:23:43;99679.73;;;17.48;93.23
12536;BME280;6334;48.696;2.114;2022-09-12T02:26:18;99673.45;;;17.31;94.74
12536;BME280;6334;48.696;2.114;2022-09-12T02:28:46;99669.95;;;17.17;95.67
12536;BME280;6334;48.696;2.114;2022-09-12T02:34:08;99665.57;;;17.28;95.11
12536;BME280;6334;48.696;2.114;2022-09-12T02:39:14;99662.45;;;17.30;95.45
12536;BME280;6334;48.696;2.114;2022-09-12T02:41:53;99660.67;;;17.30;95.82
12536;BME280;6334;48.696;2.114;2022-09-12T02:44:23;99657.56;;;17.32;95.02
12536;BME280;6334;48.696;2.114;2022-09-12T02:46:54;99656.88;;;17.32;95.27
12536;BME280;6334;48.696;2.114;2022-09-12T02:49:23;99651.79;;;17.02;97.09
12536;BME280;6334;48.696;2.114;2022-09-12T02:51:55;99647.20;;;17.02;96.68
12536;BME280;6334;48.696;2.114;2022-09-12T02:54:26;99639.38;;;16.98;97.63
12536;BME280;6334;48.696;2.114;2022-09-12T02:56:57;99636.98;;;17.11;96.06
12536;BME280;6334;48.696;2.114;2022-09-12T02:59:27;99631.12;;;17.23;95.48
12536;BME280;6334;48.696;2.114;2022-09-12T03:02:23;99632.95;;;17.26;95.13
12536;BME280;6334;48.696;2.114;2022-09-12T03:18:51;99620.84;;;17.00;97.00
12536;BME280;6334;48.696;2.114;2022-09-12T03:21:26;99621.42;;;16.88;97.99
12536;BME280;6334;48.696;2.114;2022-09-12T03:24:08;99612.59;;;16.87;97.79
12536;BME280;6334;48.696;2.114;2022-09-12T03:26:41;99613.22;;;16.95;97.54
12536;BME280;6334;48.696;2.114;2022-09-12T03:29:11;99599.83;;;16.88;97.23
12536;BME280;6334;48.696;2.114;2022-09-12T03:31:48;99614.98;;;16.90;97.56
12536;BME280;6334;48.696;2.114;2022-09-12T03:34:17;99616.03;;;16.93;97.12
12536;BME280;6334;48.696;2.114;2022-09-12T03:36:48;99615.08;;;16.71;98.57
12536;BME280;6334;48.696;2.114;2022-09-12T03:39:18;99615.38;;;16.88;98.00
12536;BME280;6334;48.696;2.114;2022-09-12T03:41:49;99614.38;;;16.92;96.91
12536;BME280;6334;48.696;2.114;2022-09-12T03:44:19;99612.84;;;17.02;96.85
12536;BME280;6334;48.696;2.114;2022-09-12T03:46:49;99612.84;;;16.81;97.70
12536;BME280;6334;48.696;2.114;2022-09-12T03:49:20;99612.37;;;16.83;98.20
12536;BME280;6334;48.696;2.114;2022-09-12T03:51:50;99612.73;;;16.60;98.34
12536;BME280;6334;48.696;2.114;2022-09-12T03:54:21;99613.02;;;16.84;97.92
12536;BME280;6334;48.696;2.114;2022-09-12T03:56:52;99615.73;;;16.73;98.45
12536;BME280;6334;48.696;2.114;2022-09-12T03:59:23;99616.84;;;16.77;97.59
12536;BME280;6334;48.696;2.114;2022-09-12T04:01:53;99622.57;;;16.71;98.07
12536;BME280;6334;48.696;2.114;2022-09-12T04:04:24;99623.82;;;16.78;97.90
12536;BME280;6334;48.696;2.114;2022-09-12T04:06:55;99626.48;;;16.73;98.19
12536;BME280;6334;48.696;2.114;2022-09-12T04:09:26;99626.12;;;16.66;97.88
12536;BME280;6334;48.696;2.114;2022-09-12T04:11:56;99633.68;;;16.73;98.43
12536;BME280;6334;48.696;2.114;2022-09-12T04:14:27;99634.55;;;16.73;97.44
12536;BME280;6334;48.696;2.114;2022-09-12T04:16:57;99633.38;;;16.92;97.06
12536;BME280;6334;48.696;2.114;2022-09-12T04:19:29;99628.81;;;16.98;95.95
12536;BME280;6334;48.696;2.114;2022-09-12T04:21:59;99635.92;;;16.95;95.86
12536;BME280;6334;48.696;2.114;2022-09-12T04:24:30;99628.36;;;16.69;97.50
12536;BME280;6334;48.696;2.114;2022-09-12T04:27:00;99625.67;;;16.90;96.13
12536;BME280;6334;48.696;2.114;2022-09-12T04:29:30;99619.84;;;16.81;97.13
12536;BME280;6334;48.696;2.114;2022-09-12T04:32:01;99603.45;;;16.81;96.26
12536;BME280;6334;48.696;2.114;2022-09-12T04:34:31;99604.20;;;16.80;96.91
12536;BME280;6334;48.696;2.114;2022-09-12T04:37:02;99602.03;;;16.70;97.34
12536;BME280;6334;48.696;2.114;2022-09-12T04:39:32;99601.39;;;16.64;96.86
12536;BME280;6334;48.696;2.114;2022-09-12T04:42:03;99604.20;;;16.50;97.11
12536;BME280;6334;48.696;2.114;2022-09-12T04:44:33;99606.94;;;16.56;98.36
12536;BME280;6334;48.696;2.114;2022-09-12T04:47:04;99606.81;;;16.40;98.70
12536;BME280;6334;48.696;2.114;2022-09-12T04:49:34;99602.47;;;16.52;98.30
12536;BME280;6334;48.696;2.114;2022-09-12T04:52:05;99609.81;;;16.54;98.27
12536;BME280;6334;48.696;2.114;2022-09-12T04:54:35;99613.18;;;16.80;96.35
12536;BME280;6334;48.696;2.114;2022-09-12T04:57:05;99613.35;;;16.64;97.00
12536;BME280;6334;48.696;2.114;2022-09-12T04:59:36;99608.34;;;16.58;97.04
12536;BME280;6334;48.696;2.114;2022-09-12T05:02:06;99607.98;;;16.38;98.59
12536;BME280;6334;48.696;2.114;2022-09-12T05:04:37;99606.02;;;16.56;97.32
12536;BME280;6334;48.696;2.114;2022-09-12T05:07:07;99607.69;;;16.63;97.39
12536;BME280;6334;48.696;2.114;2022-09-12T05:09:38;99594.41;;;16.73;96.52
12536;BME280;6334;48.696;2.114;2022-09-12T05:12:10;99596.55;;;16.36;98.37
12536;BME280;6334;48.696;2.114;2022-09-12T05:14:40;99592.91;;;16.51;97.41
12536;BME280;6334;48.696;2.114;2022-09-12T05:17:10;99585.71;;;16.16;99.23
12536;BME280;6334;48.696;2.114;2022-09-12T05:19:42;99578.84;;;16.36;98.37
12536;BME280;6334;48.696;2.114;2022-09-12T05:22:13;99586.31;;;16.46;98.17
12536;BME280;6334;48.696;2.114;2022-09-12T05:24:43;99584.99;;;16.39;98.99
12536;BME280;6334;48.696;2.114;2022-09-12T05:27:13;99583.82;;;16.34;99.30
12536;BME280;6334;48.696;2.114;2022-09-12T05:29:44;99582.57;;;16.39;98.43
12536;BME280;6334;48.696;2.114;2022-09-12T05:32:14;99590.43;;;16.63;97.51
12536;BME280;6334;48.696;2.114;2022-09-12T05:34:45;99588.34;;;16.57;96.74
12536;BME280;6334;48.696;2.114;2022-09-12T05:37:15;99585.02;;;16.47;97.52
12536;BME280;6334;48.696;2.114;2022-09-12T05:39:46;99595.96;;;16.69;96.48
12536;BME280;6334;48.696;2.114;2022-09-12T05:42:16;99590.64;;;16.60;96.18
12536;BME280;6334;48.696;2.114;2022-09-12T05:44:47;99582.44;;;16.16;97.94
12536;BME280;6334;48.696;2.114;2022-09-12T05:47:17;99586.26;;;16.52;96.62
12536;BME280;6334;48.696;2.114;2022-09-12T05:49:48;99590.95;;;17.34;100.00
12536;BME280;6334;48.696;2.114;2022-09-12T05:52:18;99587.83;;;16.41;98.44
12536;BME280;6334;48.696;2.114;2022-09-12T05:54:49;99587.58;;;16.50;97.79
12536;BME280;6334;48.696;2.114;2022-09-12T05:57:19;99588.82;;;16.47;98.59
12536;BME280;6334;48.696;2.114;2022-09-12T05:59:49;99585.16;;;16.53;98.14
12536;BME280;6334;48.696;2.114;2022-09-12T06:02:20;99594.50;;;16.70;97.04
12536;BME280;6334;48.696;2.114;2022-09-12T06:04:50;99598.96;;;16.79;96.38
12536;BME280;6334;48.696;2.114;2022-09-12T06:07:21;99599.58;;;16.83;96.20
12536;BME280;6334;48.696;2.114;2022-09-12T06:09:51;99597.73;;;16.89;95.98
12536;BME280;6334;48.696;2.114;2022-09-12T06:12:22;99593.63;;;16.53;97.59
12536;BME280;6334;48.696;2.114;2022-09-12T06:14:52;99598.72;;;16.71;96.69
12536;BME280;6334;48.696;2.114;2022-09-12T06:17:23;99597.15;;;16.67;96.90
12536;BME280;6334;48.696;2.114;2022-09-12T06:19:53;99597.65;;;16.76;96.05
12536;BME280;6334;48.696;2.114;2022-09-12T06:22:23;99603.36;;;16.45;96.92
12536;BME280;6334;48.696;2.114;2022-09-12T06:24:54;99608.55;;;16.91;96.07
12536;BME280;6334;48.696;2.114;2022-09-12T06:27:24;99609.88;;;16.97;95.36
12536;BME280;6334;48.696;2.114;2022-09-12T06:29:55;99612.96;;;17.09;94.31
12536;BME280;6334;48.696;2.114;2022-09-12T06:32:28;99599.05;;;16.55;97.38
12536;BME280;6334;48.696;2.114;2022-09-12T06:34:56;99605.52;;;16.65;97.11
12536;BME280;6334;48.696;2.114;2022-09-12T06:37:26;99604.70;;;16.48;97.10
12536;BME280;6334;48.696;2.114;2022-09-12T06:39:57;99612.16;;;16.57;97.03
12536;BME280;6334;48.696;2.114;2022-09-12T06:42:27;99609.05;;;16.97;95.20
12536;BME280;6334;48.696;2.114;2022-09-12T06:44:58;99609.00;;;16.52;96.99
12536;BME280;6334;48.696;2.114;2022-09-12T06:47:28;99596.47;;;16.61;96.82
12536;BME280;6334;48.696;2.114;2022-09-12T06:49:58;99603.91;;;16.90;95.51
12536;BME280;6334;48.696;2.114;2022-09-12T06:52:29;99605.70;;;16.48;98.32
12536;BME280;6334;48.696;2.114;2022-09-12T06:54:59;99610.84;;;16.87;96.16
12536;BME280;6334;48.696;2.114;2022-09-12T06:57:31;99610.84;;;17.11;94.70
12536;BME280;6334;48.696;2.114;2022-09-12T07:00:03;99612.29;;;16.88;95.59
12536;BME280;6334;48.696;2.114;2022-09-12T07:02:32;99613.84;;;16.61;97.10
12536;BME280;6334;48.696;2.114;2022-09-12T07:05:03;99609.23;;;16.92;95.17
12536;BME280;6334;48.696;2.114;2022-09-12T07:07:33;99617.95;;;16.97;96.08
12536;BME280;6334;48.696;2.114;2022-09-12T07:10:05;99617.27;;;16.73;96.32
12536;BME280;6334;48.696;2.114;2022-09-12T07:12:35;99610.98;;;16.96;96.40
12536;BME280;6334;48.696;2.114;2022-09-12T07:15:06;99605.95;;;16.86;97.73
12536;BME280;6334;48.696;2.114;2022-09-12T07:17:36;99603.81;;;17.09;96.34
12536;BME280;6334;48.696;2.114;2022-09-12T07:20:07;99610.46;;;17.37;94.48
12536;BME280;6334;48.696;2.114;2022-09-12T07:22:37;99597.67;;;17.86;97.66
12536;BME280;6334;48.696;2.114;2022-09-12T07:25:07;99607.98;;;17.93;95.52
12536;BME280;6334;48.696;2.114;2022-09-12T07:27:38;99604.30;;;18.25;92.89
12536;BME280;6334;48.696;2.114;2022-09-12T07:30:08;99595.17;;;18.49;93.16
12536;BME280;6334;48.696;2.114;2022-09-12T07:32:40;99600.50;;;18.47;93.38
12536;BME280;6334;48.696;2.114;2022-09-12T07:35:11;99600.30;;;18.64;92.04
12536;BME280;6334;48.696;2.114;2022-09-12T07:37:41;99605.27;;;18.61;91.62
12536;BME280;6334;48.696;2.114;2022-09-12T07:40:12;99609.20;;;18.78;91.31
12536;BME280;6334;48.696;2.114;2022-09-12T07:42:43;99611.73;;;18.63;91.16
12536;BME280;6334;48.696;2.114;2022-09-12T07:45:14;99607.69;;;18.58;90.96
12536;BME280;6334;48.696;2.114;2022-09-12T07:47:45;99608.19;;;18.46;91.44
12536;BME280;6334;48.696;2.114;2022-09-12T07:50:17;99611.03;;;18.99;89.97
12536;BME280;6334;48.696;2.114;2022-09-12T07:52:48;99612.88;;;19.08;89.60
12536;BME280;6334;48.696;2.114;2022-09-12T07:55:18;99612.81;;;19.09;89.61
12536;BME280;6334;48.696;2.114;2022-09-12T07:57:49;99609.70;;;18.98;89.25
12536;BME280;6334;48.696;2.114;2022-09-12T08:00:19;99590.75;;;19.09;89.58
12536;BME280;6334;48.696;2.114;2022-09-12T08:02:50;99603.45;;;19.19;89.14
12536;BME280;6334;48.696;2.114;2022-09-12T08:05:20;99605.52;;;19.29;88.99
12536;BME280;6334;48.696;2.114;2022-09-12T08:07:50;99601.33;;;19.20;89.97
12536;BME280;6334;48.696;2.114;2022-09-12T08:10:21;99603.33;;;19.29;88.82
12536;BME280;6334;48.696;2.114;2022-09-12T08:12:51;99605.17;;;18.81;90.79
12536;BME280;6334;48.696;2.114;2022-09-12T08:15:22;99601.23;;;19.41;88.88
12536;BME280;6334;48.696;2.114;2022-09-12T08:17:52;99598.34;;;19.67;87.37
12536;BME280;6334;48.696;2.114;2022-09-12T08:20:23;99599.34;;;19.65;87.62
12536;BME280;6334;48.696;2.114;2022-09-12T08:22:53;99603.57;;;19.61;87.41
12536;BME280;6334;48.696;2.114;2022-09-12T08:25:24;99604.93;;;19.77;87.42
12536;BME280;6334;48.696;2.114;2022-09-12T08:27:55;99609.81;;;19.88;87.40
12536;BME280;6334;48.696;2.114;2022-09-12T08:30:26;99608.27;;;19.96;87.13
12536;BME280;6334;48.696;2.114;2022-09-12T08:32:56;99613.35;;;19.72;87.15
12536;BME280;6334;48.696;2.114;2022-09-12T08:35:29;99618.11;;;19.88;86.62
12536;BME280;6334;48.696;2.114;2022-09-12T08:37:59;99627.29;;;20.03;86.28
12536;BME280;6334;48.696;2.114;2022-09-12T08:40:30;99624.12;;;19.95;86.29
12536;BME280;6334;48.696;2.114;2022-09-12T08:43:02;99618.38;;;19.94;85.96
12536;BME280;6334;48.696;2.114;2022-09-12T08:45:39;99615.05;;;19.99;86.73
12536;BME280;6334;48.696;2.114;2022-09-12T08:48:08;99613.78;;;19.94;86.63
12536;BME280;6334;48.696;2.114;2022-09-12T08:50:39;99608.70;;;19.83;87.25
12536;BME280;6334;48.696;2.114;2022-09-12T08:53:20;99609.24;;;19.21;88.28
12536;BME280;6334;48.696;2.114;2022-09-12T08:55:54;99613.03;;;20.09;86.38
12536;BME280;6334;48.696;2.114;2022-09-12T08:58:21;99607.72;;;20.18;85.96
12536;BME280;6334;48.696;2.114;2022-09-12T09:11:54;99582.40;;;19.45;88.31
12536;BME280;6334;48.696;2.114;2022-09-12T09:20:04;99597.94;;;19.95;87.25
12536;BME280;6334;48.696;2.114;2022-09-12T09:26:03;99596.43;;;20.19;85.26
12536;BME280;6334;48.696;2.114;2022-09-12T09:28:01;99592.94;;;20.41;84.81
12536;BME280;6334;48.696;2.114;2022-09-12T09:30:29;99593.27;;;20.47;83.90
12536;BME280;6334;48.696;2.114;2022-09-12T09:32:59;99596.64;;;20.77;82.54
12536;BME280;6334;48.696;2.114;2022-09-12T09:35:47;99590.00;;;20.74;82.61
12536;BME280;6334;48.696;2.114;2022-09-12T09:43:48;99591.00;;;20.76;80.57
12536;BME280;6334;48.696;2.114;2022-09-12T09:46:19;99588.77;;;21.12;81.02
12536;BME280;6334;48.696;2.114;2022-09-12T09:48:50;99585.66;;;21.40;80.32
12536;BME280;6334;48.696;2.114;2022-09-12T09:51:24;99584.06;;;21.27;82.01
12536;BME280;6334;48.696;2.114;2022-09-12T09:54:08;99587.56;;;21.35;81.08
12536;BME280;6334;48.696;2.114;2022-09-12T09:56:37;99587.77;;;21.29;79.26
12536;BME280;6334;48.696;2.114;2022-09-12T09:59:17;99578.01;;;21.41;79.94
12536;BME280;6334;48.696;2.114;2022-09-12T10:01:55;99568.52;;;21.53;78.44
12536;BME280;6334;48.696;2.114;2022-09-12T10:04:26;99569.05;;;21.67;79.56
12536;BME280;6334;48.696;2.114;2022-09-12T10:06:58;99567.43;;;21.42;79.08
12536;BME280;6334;48.696;2.114;2022-09-12T10:09:34;99563.73;;;21.87;79.07
12536;BME280;6334;48.696;2.114;2022-09-12T10:12:21;99558.34;;;21.84;80.03
12536;BME280;6334;48.696;2.114;2022-09-12T10:14:56;99555.30;;;21.92;77.05
12536;BME280;6334;48.696;2.114;2022-09-12T10:17:30;99561.45;;;22.18;76.98
12536;BME280;6334;48.696;2.114;2022-09-12T10:20:00;99568.59;;;22.36;76.12
12536;BME280;6334;48.696;2.114;2022-09-12T10:22:30;99577.47;;;21.94;75.10
12536;BME280;6334;48.696;2.114;2022-09-12T10:25:01;99573.77;;;22.10;74.13
12536;BME280;6334;48.696;2.114;2022-09-12T10:27:31;99565.73;;;22.20;72.80
12536;BME280;6334;48.696;2.114;2022-09-12T10:30:06;99563.30;;;22.12;72.86
12536;BME280;6334;48.696;2.114;2022-09-12T10:32:36;99554.25;;;22.64;68.71
12536;BME280;6334;48.696;2.114;2022-09-12T10:35:20;99548.34;;;22.52;72.65
12536;BME280;6334;48.696;2.114;2022-09-12T10:40:38;99549.05;;;22.64;69.28
12536;BME280;6334;48.696;2.114;2022-09-12T10:43:23;99545.00;;;22.71;69.94
12536;BME280;6334;48.696;2.114;2022-09-12T10:45:46;99547.94;;;22.82;70.11
12536;BME280;6334;48.696;2.114;2022-09-12T10:48:31;99548.97;;;22.90;68.79
12536;BME280;6334;48.696;2.114;2022-09-12T10:51:01;99558.53;;;22.92;66.49
12536;BME280;6334;48.696;2.114;2022-09-12T10:53:31;99557.64;;;23.04;66.49
12536;BME280;6334;48.696;2.114;2022-09-12T10:56:15;99559.41;;;23.07;65.91
12536;BME280;6334;48.696;2.114;2022-09-12T10:58:49;99556.61;;;23.09;65.50
12536;BME280;6334;48.696;2.114;2022-09-12T11:01:36;99554.38;;;23.12;64.72
12536;BME280;6334;48.696;2.114;2022-09-12T11:10:00;99549.09;;;23.45;63.52
12536;BME280;6334;48.696;2.114;2022-09-12T11:12:35;99540.14;;;23.38;65.31
12536;BME280;6334;48.696;2.114;2022-09-12T11:29:08;99508.06;;;23.37;63.58
12536;BME280;6334;48.696;2.114;2022-09-12T11:31:46;99502.84;;;23.04;64.91
12536;BME280;6334;48.696;2.114;2022-09-12T11:34:10;99501.52;;;23.27;64.37
12536;BME280;6334;48.696;2.114;2022-09-12T11:36:50;99502.89;;;23.13;63.73
12536;BME280;6334;48.696;2.114;2022-09-12T11:39:18;99497.94;;;23.53;64.02
12536;BME280;6334;48.696;2.114;2022-09-12T11:41:48;99496.59;;;23.57;64.33
12536;BME280;6334;48.696;2.114;2022-09-12T11:44:21;99500.54;;;23.59;62.87
12536;BME280;6334;48.696;2.114;2022-09-12T11:46:50;99490.27;;;23.50;64.46
12536;BME280;6334;48.696;2.114;2022-09-12T11:57:42;99486.00;;;23.72;63.64
12536;BME280;6334;48.696;2.114;2022-09-12T12:00:20;99483.49;;;23.62;59.99
12536;BME280;6334;48.696;2.114;2022-09-12T12:03:24;99478.66;;;23.82;60.53
12536;BME280;6334;48.696;2.114;2022-09-12T12:06:05;99491.72;;;24.06;59.27
12536;BME280;6334;48.696;2.114;2022-09-12T12:08:39;99489.92;;;24.14;59.59
12536;BME280;6334;48.696;2.114;2022-09-12T12:11:09;99491.64;;;24.00;60.39
12536;BME280;6334;48.696;2.114;2022-09-12T12:13:46;99489.33;;;24.48;59.20
12536;BME280;6334;48.696;2.114;2022-09-12T12:16:36;99493.49;;;24.26;56.67
12536;BME280;6334;48.696;2.114;2022-09-12T12:19:00;99498.15;;;24.17;57.75
12536;BME280;6334;48.696;2.114;2022-09-12T12:21:43;99490.16;;;24.19;56.23
12536;BME280;6334;48.696;2.114;2022-09-12T12:24:14;99493.34;;;24.32;56.86
12536;BME280;6334;48.696;2.114;2022-09-12T12:34:35;99493.64;;;24.58;54.93
12536;BME280;6334;48.696;2.114;2022-09-12T12:39:59;99492.75;;;24.73;56.42
12536;BME280;6334;48.696;2.114;2022-09-12T12:47:39;99478.21;;;24.85;56.15
12536;BME280;6334;48.696;2.114;2022-09-12T12:58:06;99478.28;;;24.74;53.46
12536;BME280;6334;48.696;2.114;2022-09-12T13:00:38;99482.91;;;24.80;53.11
12536;BME280;6334;48.696;2.114;2022-09-12T13:03:21;99476.45;;;24.71;53.06
12536;BME280;6334;48.696;2.114;2022-09-12T13:05:47;99479.73;;;24.89;52.11
12536;BME280;6334;48.696;2.114;2022-09-12T13:10:50;99467.14;;;24.79;52.68
12536;BME280;6334;48.696;2.114;2022-09-12T13:16:11;99448.52;;;24.82;52.35
12536;BME280;6334;48.696;2.114;2022-09-12T13:18:44;99437.34;;;24.93;52.39
12536;BME280;6334;48.696;2.114;2022-09-12T13:21:17;99435.16;;;24.79;48.54
12536;BME280;6334;48.696;2.114;2022-09-12T13:24:11;99434.97;;;24.89;50.86
12536;BME280;6334;48.696;2.114;2022-09-12T13:26:40;99430.18;;;24.94;49.39
12536;BME280;6334;48.696;2.114;2022-09-12T13:29:13;99435.35;;;24.99;50.47
12536;BME280;6334;48.696;2.114;2022-09-12T13:31:42;99433.73;;;24.91;52.24
12536;BME280;6334;48.696;2.114;2022-09-12T13:34:15;99430.02;;;24.99;51.21
12536;BME280;6334;48.696;2.114;2022-09-12T13:42:24;99424.22;;;25.02;51.19
12536;BME280;6334;48.696;2.114;2022-09-12T13:44:57;99424.21;;;24.98;52.65
12536;BME280;6334;48.696;2.114;2022-09-12T13:47:35;99428.80;;;24.80;52.25
12536;BME280;6334;48.696;2.114;2022-09-12T13:50:06;99422.34;;;24.89;51.20
12536;BME280;6334;48.696;2.114;2022-09-12T13:52:36;99413.70;;;25.06;49.09
12536;BME280;6334;48.696;2.114;2022-09-12T13:55:13;99413.91;;;24.92;51.59
12536;BME280;6334;48.696;2.114;2022-09-12T13:57:40;99403.70;;;24.84;50.68
12536;BME280;6334;48.696;2.114;2022-09-12T14:00:17;99403.61;;;25.11;50.69
12536;BME280;6334;48.696;2.114;2022-09-12T14:02:43;99408.65;;;25.08;50.18
12536;BME280;6334;48.696;2.114;2022-09-12T14:05:20;99402.52;;;25.11;50.45
12536;BME280;6334;48.696;2.114;2022-09-12T14:07:59;99402.33;;;25.27;45.31
12536;BME280;6334;48.696;2.114;2022-09-12T14:10:32;99394.16;;;25.22;49.30
12536;BME280;6334;48.696;2.114;2022-09-12T14:13:08;99391.66;;;25.11;49.18
12536;BME280;6334;48.696;2.114;2022-09-12T14:15:34;99391.09;;;25.17;48.75
12536;BME280;6334;48.696;2.114;2022-09-12T14:18:05;99387.84;;;24.93;48.64
12536;BME280;6334;48.696;2.114;2022-09-12T14:20:35;99383.02;;;25.21;47.16
12536;BME280;6334;48.696;2.114;2022-09-12T14:23:16;99375.13;;;25.10;49.21
12536;BME280;6334;48.696;2.114;2022-09-12T14:25:37;99378.97;;;25.17;50.12
12536;BME280;6334;48.696;2.114;2022-09-12T14:28:13;99376.84;;;25.16;51.85
12536;BME280;6334;48.696;2.114;2022-09-12T14:30:56;99365.47;;;25.12;50.48
12536;BME280;6334;48.696;2.114;2022-09-12T14:33:18;99367.63;;;25.28;48.29
12536;BME280;6334;48.696;2.114;2022-09-12T14:35:48;99365.98;;;25.15;50.83
12536;BME280;6334;48.696;2.114;2022-09-12T14:38:21;99360.08;;;25.20;48.35
12536;BME280;6334;48.696;2.114;2022-09-12T14:41:00;99359.28;;;24.93;48.39
12536;BME280;6334;48.696;2.114;2022-09-12T14:43:31;99362.10;;;25.11;48.24
12536;BME280;6334;48.696;2.114;2022-09-12T14:46:04;99357.48;;;25.32;48.36
12536;BME280;6334;48.696;2.114;2022-09-12T14:48:33;99352.45;;;25.12;48.19
12536;BME280;6334;48.696;2.114;2022-09-12T14:51:02;99355.52;;;25.09;48.28
12536;BME280;6334;48.696;2.114;2022-09-12T14:53:33;99349.69;;;24.84;48.56
12536;BME280;6334;48.696;2.114;2022-09-12T14:56:06;99343.72;;;24.92;48.76
12536;BME280;6334;48.696;2.114;2022-09-12T14:58:36;99339.80;;;25.03;49.00
12536;BME280;6334;48.696;2.114;2022-09-12T15:06:25;99326.83;;;25.11;49.01
12536;BME280;6334;48.696;2.114;2022-09-12T15:08:53;99331.07;;;25.17;49.08
12536;BME280;6334;48.696;2.114;2022-09-12T15:11:23;99330.30;;;25.30;46.80
12536;BME280;6334;48.696;2.114;2022-09-12T15:13:53;99327.11;;;25.17;49.05
12536;BME280;6334;48.696;2.114;2022-09-12T15:16:24;99324.58;;;25.21;48.57
12536;BME280;6334;48.696;2.114;2022-09-12T15:25:55;99333.98;;;25.20;48.66
12536;BME280;6334;48.696;2.114;2022-09-12T15:28:26;99328.31;;;25.22;49.35
12536;BME280;6334;48.696;2.114;2022-09-12T15:30:55;99328.84;;;25.16;48.39
12536;BME280;6334;48.696;2.114;2022-09-12T15:33:26;99327.84;;;25.24;48.21
12536;BME280;6334;48.696;2.114;2022-09-12T15:35:56;99323.09;;;25.15;48.81
12536;BME280;6334;48.696;2.114;2022-09-12T15:38:26;99326.81;;;25.09;50.20
12536;BME280;6334;48.696;2.114;2022-09-12T15:40:57;99324.53;;;25.10;50.16
12536;BME280;6334;48.696;2.114;2022-09-12T15:43:27;99325.12;;;25.10;50.27
12536;BME280;6334;48.696;2.114;2022-09-12T15:45:58;99328.66;;;24.97;49.88
12536;BME280;6334;48.696;2.114;2022-09-12T15:48:28;99324.98;;;25.07;50.10
12536;BME280;6334;48.696;2.114;2022-09-12T15:50:59;99319.91;;;24.97;50.55
12536;BME280;6334;48.696;2.114;2022-09-12T15:53:29;99316.30;;;24.85;51.39
12536;BME280;6334;48.696;2.114;2022-09-12T15:56:00;99313.56;;;25.00;50.99
12536;BME280;6334;48.696;2.114;2022-09-12T15:58:30;99307.05;;;24.94;50.70
12536;BME280;6334;48.696;2.114;2022-09-12T16:01:00;99303.09;;;24.98;51.43